sensor_id;sensor_type;location;lat;lon;timestamp;temperature;humidity
29803;DHT22;16702;50.898;4.662;2022-08-19T00:02:03;23.70;99.90
29803;DHT22;16702;50.898;4.662;2022-08-19T00:04:35;23.70;99.90
29803;DHT22;16702;50.898;4.662;2022-08-19T00:07:07;23.70;99.90
29803;DHT22;16702;50.898;4.662;2022-08-19T00:09:38;23.70;99.90
29803;DHT22;16702;50.898;4.662;2022-08-19T00:12:08;23.60;99.90
29803;DHT22;16702;50.898;4.662;2022-08-19T00:14:41;23.60;99.90
29803;DHT22;16702;50.898;4.662;2022-08-19T00:17:12;23.60;99.90
29803;DHT22;16702;50.898;4.662;2022-08-19T00:19:42;23.60;99.90
29803;DHT22;16702;50.898;4.662;2022-08-19T00:22:12;23.60;99.90
29803;DHT22;16702;50.898;4.662;2022-08-19T00:24:45;23.60;99.90
29803;DHT22;16702;50.898;4.662;2022-08-19T00:27:20;23.50;99.90
29803;DHT22;16702;50.898;4.662;2022-08-19T00:29:58;23.60;99.90
29803;DHT22;16702;50.898;4.662;2022-08-19T00:32:30;23.60;99.90
29803;DHT22;16702;50.898;4.662;2022-08-19T00:35:01;23.50;99.90
29803;DHT22;16702;50.898;4.662;2022-08-19T00:37:32;23.50;99.90
29803;DHT22;16702;50.898;4.662;2022-08-19T00:40:04;23.50;99.90
29803;DHT22;16702;50.898;4.662;2022-08-19T00:42:35;23.50;99.90
29803;DHT22;16702;50.898;4.662;2022-08-19T00:45:12;23.50;99.90
29803;DHT22;16702;50.898;4.662;2022-08-19T00:47:44;23.40;99.90
29803;DHT22;16702;50.898;4.662;2022-08-19T00:50:17;23.40;99.90
29803;DHT22;16702;50.898;4.662;2022-08-19T00:52:50;23.40;99.90
29803;DHT22;16702;50.898;4.662;2022-08-19T00:55:23;23.30;99.90
29803;DHT22;16702;50.898;4.662;2022-08-19T00:57:58;23.30;99.90
29803;DHT22;16702;50.898;4.662;2022-08-19T01:00:33;23.30;99.90
29803;DHT22;16702;50.898;4.662;2022-08-19T01:03:05;23.30;99.90
29803;DHT22;16702;50.898;4.662;2022-08-19T01:05:37;23.30;99.90
29803;DHT22;16702;50.898;4.662;2022-08-19T01:08:10;23.20;99.90
29803;DHT22;16702;50.898;4.662;2022-08-19T01:10:43;23.20;99.90
29803;DHT22;16702;50.898;4.662;2022-08-19T01:13:15;23.20;99.90
29803;DHT22;16702;50.898;4.662;2022-08-19T01:15:50;23.20;99.90
29803;DHT22;16702;50.898;4.662;2022-08-19T01:18:24;23.20;99.90
29803;DHT22;16702;50.898;4.662;2022-08-19T01:20:59;23.20;99.90
29803;DHT22;16702;50.898;4.662;2022-08-19T01:23:33;23.10;99.90
29803;DHT22;16702;50.898;4.662;2022-08-19T01:26:14;23.10;99.90
29803;DHT22;16702;50.898;4.662;2022-08-19T01:28:47;23.10;99.90
29803;DHT22;16702;50.898;4.662;2022-08-19T01:31:20;23.00;99.90
29803;DHT22;16702;50.898;4.662;2022-08-19T01:33:55;23.10;99.90
29803;DHT22;16702;50.898;4.662;2022-08-19T01:36:28;23.00;99.90
29803;DHT22;16702;50.898;4.662;2022-08-19T01:39:08;23.00;99.90
29803;DHT22;16702;50.898;4.662;2022-08-19T01:41:39;22.90;99.90
29803;DHT22;16702;50.898;4.662;2022-08-19T01:44:10;22.90;99.90
29803;DHT22;16702;50.898;4.662;2022-08-19T01:46:46;22.90;99.90
29803;DHT22;16702;50.898;4.662;2022-08-19T01:49:18;22.80;99.90
29803;DHT22;16702;50.898;4.662;2022-08-19T01:51:50;22.80;99.90
29803;DHT22;16702;50.898;4.662;2022-08-19T01:54:24;22.80;99.90
29803;DHT22;16702;50.898;4.662;2022-08-19T01:56:59;22.70;99.90
29803;DHT22;16702;50.898;4.662;2022-08-19T01:59:32;22.70;99.90
29803;DHT22;16702;50.898;4.662;2022-08-19T02:02:04;22.70;99.90
29803;DHT22;16702;50.898;4.662;2022-08-19T02:04:36;22.60;99.90
29803;DHT22;16702;50.898;4.662;2022-08-19T02:07:07;22.60;99.90
29803;DHT22;16702;50.898;4.662;2022-08-19T02:09:40;22.60;99.90
29803;DHT22;16702;50.898;4.662;2022-08-19T02:12:11;22.60;99.90
29803;DHT22;16702;50.898;4.662;2022-08-19T02:14:41;22.60;99.90
29803;DHT22;16702;50.898;4.662;2022-08-19T02:17:12;22.60;99.90
29803;DHT22;16702;50.898;4.662;2022-08-19T02:19:42;22.60;99.90
29803;DHT22;16702;50.898;4.662;2022-08-19T02:22:12;22.60;99.90
29803;DHT22;16702;50.898;4.662;2022-08-19T02:24:45;22.50;99.90
29803;DHT22;16702;50.898;4.662;2022-08-19T02:27:15;22.50;99.90
29803;DHT22;16702;50.898;4.662;2022-08-19T02:29:47;22.40;99.90
29803;DHT22;16702;50.898;4.662;2022-08-19T02:32:18;22.50;99.90
29803;DHT22;16702;50.898;4.662;2022-08-19T02:34:48;22.50;99.90
29803;DHT22;16702;50.898;4.662;2022-08-19T02:37:19;22.50;99.90
29803;DHT22;16702;50.898;4.662;2022-08-19T02:40:05;22.40;99.90
29803;DHT22;16702;50.898;4.662;2022-08-19T02:42:41;22.40;99.90
29803;DHT22;16702;50.898;4.662;2022-08-19T02:45:13;22.40;99.90
29803;DHT22;16702;50.898;4.662;2022-08-19T02:47:43;22.40;99.90
29803;DHT22;16702;50.898;4.662;2022-08-19T02:50:13;22.40;99.90
29803;DHT22;16702;50.898;4.662;2022-08-19T02:52:44;22.40;99.90
29803;DHT22;16702;50.898;4.662;2022-08-19T02:55:18;22.30;99.90
29803;DHT22;16702;50.898;4.662;2022-08-19T02:57:48;22.30;99.90
29803;DHT22;16702;50.898;4.662;2022-08-19T03:00:19;22.30;99.90
29803;DHT22;16702;50.898;4.662;2022-08-19T03:02:51;22.30;99.90
29803;DHT22;16702;50.898;4.662;2022-08-19T03:05:21;22.30;99.90
29803;DHT22;16702;50.898;4.662;2022-08-19T03:08:13;22.20;99.90
29803;DHT22;16702;50.898;4.662;2022-08-19T03:10:47;22.30;99.90
29803;DHT22;16702;50.898;4.662;2022-08-19T03:13:18;22.30;99.90
29803;DHT22;16702;50.898;4.662;2022-08-19T03:15:49;22.30;99.90
29803;DHT22;16702;50.898;4.662;2022-08-19T03:18:20;22.30;99.90
29803;DHT22;16702;50.898;4.662;2022-08-19T03:20:52;22.20;99.90
29803;DHT22;16702;50.898;4.662;2022-08-19T03:23:23;22.20;99.90
29803;DHT22;16702;50.898;4.662;2022-08-19T03:25:56;22.20;99.90
29803;DHT22;16702;50.898;4.662;2022-08-19T03:28:44;22.10;99.90
29803;DHT22;16702;50.898;4.662;2022-08-19T03:31:19;22.10;99.90
29803;DHT22;16702;50.898;4.662;2022-08-19T03:34:11;22.00;99.90
29803;DHT22;16702;50.898;4.662;2022-08-19T03:36:41;21.90;99.90
29803;DHT22;16702;50.898;4.662;2022-08-19T03:39:12;22.00;99.90
29803;DHT22;16702;50.898;4.662;2022-08-19T03:41:46;22.00;99.90
29803;DHT22;16702;50.898;4.662;2022-08-19T03:44:37;21.90;99.90
29803;DHT22;16702;50.898;4.662;2022-08-19T03:47:09;21.90;99.90
29803;DHT22;16702;50.898;4.662;2022-08-19T03:49:44;21.90;99.90
29803;DHT22;16702;50.898;4.662;2022-08-19T03:52:14;21.90;99.90
29803;DHT22;16702;50.898;4.662;2022-08-19T03:54:45;21.90;99.90
29803;DHT22;16702;50.898;4.662;2022-08-19T03:57:17;21.90;99.90
29803;DHT22;16702;50.898;4.662;2022-08-19T03:59:58;21.70;99.90
29803;DHT22;16702;50.898;4.662;2022-08-19T04:02:40;21.80;99.90
29803;DHT22;16702;50.898;4.662;2022-08-19T04:05:27;21.80;99.90
29803;DHT22;16702;50.898;4.662;2022-08-19T04:07:58;21.80;99.90
29803;DHT22;16702;50.898;4.662;2022-08-19T04:10:28;21.80;99.90
29803;DHT22;16702;50.898;4.662;2022-08-19T04:13:01;21.80;99.90
29803;DHT22;16702;50.898;4.662;2022-08-19T04:15:32;21.80;99.90
29803;DHT22;16702;50.898;4.662;2022-08-19T04:18:07;21.80;99.90
29803;DHT22;16702;50.898;4.662;2022-08-19T04:20:46;21.70;99.90
29803;DHT22;16702;50.898;4.662;2022-08-19T04:23:17;21.70;99.90
29803;DHT22;16702;50.898;4.662;2022-08-19T04:25:47;21.70;99.90
29803;DHT22;16702;50.898;4.662;2022-08-19T04:28:20;21.60;99.90
29803;DHT22;16702;50.898;4.662;2022-08-19T04:30:54;21.60;99.90
29803;DHT22;16702;50.898;4.662;2022-08-19T04:33:25;21.60;99.90
29803;DHT22;16702;50.898;4.662;2022-08-19T04:35:56;21.50;99.90
29803;DHT22;16702;50.898;4.662;2022-08-19T04:38:30;21.50;99.90
29803;DHT22;16702;50.898;4.662;2022-08-19T04:41:03;21.50;99.90
29803;DHT22;16702;50.898;4.662;2022-08-19T04:43:48;21.50;99.90
29803;DHT22;16702;50.898;4.662;2022-08-19T04:46:18;21.50;99.90
29803;DHT22;16702;50.898;4.662;2022-08-19T04:49:08;21.50;99.90
29803;DHT22;16702;50.898;4.662;2022-08-19T04:51:42;21.50;99.90
29803;DHT22;16702;50.898;4.662;2022-08-19T04:54:13;21.40;99.90
29803;DHT22;16702;50.898;4.662;2022-08-19T04:57:04;21.40;99.90
29803;DHT22;16702;50.898;4.662;2022-08-19T04:59:39;21.40;99.90
29803;DHT22;16702;50.898;4.662;2022-08-19T05:02:09;21.40;99.90
29803;DHT22;16702;50.898;4.662;2022-08-19T05:04:40;21.30;99.90
29803;DHT22;16702;50.898;4.662;2022-08-19T05:07:10;21.30;99.90
29803;DHT22;16702;50.898;4.662;2022-08-19T05:09:40;21.30;99.90
29803;DHT22;16702;50.898;4.662;2022-08-19T05:12:25;21.30;99.90
29803;DHT22;16702;50.898;4.662;2022-08-19T05:14:58;21.30;99.90
29803;DHT22;16702;50.898;4.662;2022-08-19T05:17:31;21.30;99.90
29803;DHT22;16702;50.898;4.662;2022-08-19T05:20:06;21.20;99.90
29803;DHT22;16702;50.898;4.662;2022-08-19T05:22:49;21.20;99.90
29803;DHT22;16702;50.898;4.662;2022-08-19T05:25:21;21.20;99.90
29803;DHT22;16702;50.898;4.662;2022-08-19T05:27:52;21.20;99.90
29803;DHT22;16702;50.898;4.662;2022-08-19T05:30:25;21.10;99.90
29803;DHT22;16702;50.898;4.662;2022-08-19T05:33:13;21.20;99.90
29803;DHT22;16702;50.898;4.662;2022-08-19T05:35:43;21.10;99.90
29803;DHT22;16702;50.898;4.662;2022-08-19T05:38:16;21.10;99.90
29803;DHT22;16702;50.898;4.662;2022-08-19T05:40:47;21.10;99.90
29803;DHT22;16702;50.898;4.662;2022-08-19T05:43:17;21.00;99.90
29803;DHT22;16702;50.898;4.662;2022-08-19T05:45:50;21.00;99.90
29803;DHT22;16702;50.898;4.662;2022-08-19T05:48:20;21.00;99.90
29803;DHT22;16702;50.898;4.662;2022-08-19T05:50:51;21.00;99.90
29803;DHT22;16702;50.898;4.662;2022-08-19T05:53:21;21.00;99.90
29803;DHT22;16702;50.898;4.662;2022-08-19T05:55:51;21.00;99.90
29803;DHT22;16702;50.898;4.662;2022-08-19T05:58:24;21.10;99.90
29803;DHT22;16702;50.898;4.662;2022-08-19T06:00:57;21.00;99.90
29803;DHT22;16702;50.898;4.662;2022-08-19T06:03:32;20.90;99.90
29803;DHT22;16702;50.898;4.662;2022-08-19T06:06:05;21.00;99.90
29803;DHT22;16702;50.898;4.662;2022-08-19T06:08:37;21.10;99.90
29803;DHT22;16702;50.898;4.662;2022-08-19T06:11:16;21.10;99.90
29803;DHT22;16702;50.898;4.662;2022-08-19T06:13:48;21.10;99.90
29803;DHT22;16702;50.898;4.662;2022-08-19T06:16:29;21.00;99.90
29803;DHT22;16702;50.898;4.662;2022-08-19T06:19:03;21.00;99.90
29803;DHT22;16702;50.898;4.662;2022-08-19T06:21:36;21.00;99.90
29803;DHT22;16702;50.898;4.662;2022-08-19T06:24:10;21.10;99.90
29803;DHT22;16702;50.898;4.662;2022-08-19T06:26:46;21.10;99.90
29803;DHT22;16702;50.898;4.662;2022-08-19T06:29:21;21.20;99.90
29803;DHT22;16702;50.898;4.662;2022-08-19T06:31:57;21.20;99.90
29803;DHT22;16702;50.898;4.662;2022-08-19T06:34:30;21.20;99.90
29803;DHT22;16702;50.898;4.662;2022-08-19T06:37:02;21.20;99.90
29803;DHT22;16702;50.898;4.662;2022-08-19T06:39:38;21.10;99.90
29803;DHT22;16702;50.898;4.662;2022-08-19T06:42:08;21.10;99.90
29803;DHT22;16702;50.898;4.662;2022-08-19T06:44:47;21.20;99.90
29803;DHT22;16702;50.898;4.662;2022-08-19T06:47:22;21.20;99.90
29803;DHT22;16702;50.898;4.662;2022-08-19T06:49:56;21.30;99.90
29803;DHT22;16702;50.898;4.662;2022-08-19T06:52:33;21.30;99.90
29803;DHT22;16702;50.898;4.662;2022-08-19T06:55:05;21.30;99.90
29803;DHT22;16702;50.898;4.662;2022-08-19T06:57:36;21.30;99.90
29803;DHT22;16702;50.898;4.662;2022-08-19T07:00:07;21.30;99.90
29803;DHT22;16702;50.898;4.662;2022-08-19T07:02:43;21.30;99.90
29803;DHT22;16702;50.898;4.662;2022-08-19T07:05:21;21.40;99.90
29803;DHT22;16702;50.898;4.662;2022-08-19T07:07:52;21.50;99.90
29803;DHT22;16702;50.898;4.662;2022-08-19T07:10:30;21.40;99.90
29803;DHT22;16702;50.898;4.662;2022-08-19T07:13:02;21.50;99.90
29803;DHT22;16702;50.898;4.662;2022-08-19T07:15:33;21.60;99.90
29803;DHT22;16702;50.898;4.662;2022-08-19T07:18:08;21.50;99.90
29803;DHT22;16702;50.898;4.662;2022-08-19T07:20:39;21.60;99.90
29803;DHT22;16702;50.898;4.662;2022-08-19T07:23:10;21.60;99.90
29803;DHT22;16702;50.898;4.662;2022-08-19T07:25:42;21.70;99.90
29803;DHT22;16702;50.898;4.662;2022-08-19T07:28:19;21.70;99.90
29803;DHT22;16702;50.898;4.662;2022-08-19T07:30:53;21.70;99.90
29803;DHT22;16702;50.898;4.662;2022-08-19T07:33:26;21.60;99.90
29803;DHT22;16702;50.898;4.662;2022-08-19T07:35:59;21.60;99.90
29803;DHT22;16702;50.898;4.662;2022-08-19T07:38:30;21.70;99.90
29803;DHT22;16702;50.898;4.662;2022-08-19T07:41:01;21.70;99.90
29803;DHT22;16702;50.898;4.662;2022-08-19T07:43:32;21.80;99.90
29803;DHT22;16702;50.898;4.662;2022-08-19T07:46:02;21.80;99.90
29803;DHT22;16702;50.898;4.662;2022-08-19T07:48:35;21.90;99.90
29803;DHT22;16702;50.898;4.662;2022-08-19T07:51:07;22.00;99.90
29803;DHT22;16702;50.898;4.662;2022-08-19T07:53:40;22.00;99.90
29803;DHT22;16702;50.898;4.662;2022-08-19T07:56:12;21.90;99.90
29803;DHT22;16702;50.898;4.662;2022-08-19T07:58:45;22.00;99.90
29803;DHT22;16702;50.898;4.662;2022-08-19T08:01:19;22.10;99.90
29803;DHT22;16702;50.898;4.662;2022-08-19T08:03:53;22.30;99.90
29803;DHT22;16702;50.898;4.662;2022-08-19T08:06:37;22.30;99.90
29803;DHT22;16702;50.898;4.662;2022-08-19T08:09:23;22.30;99.90
29803;DHT22;16702;50.898;4.662;2022-08-19T08:12:02;22.20;99.90
29803;DHT22;16702;50.898;4.662;2022-08-19T08:14:56;22.20;99.90
29803;DHT22;16702;50.898;4.662;2022-08-19T08:17:34;22.20;99.90
29803;DHT22;16702;50.898;4.662;2022-08-19T08:20:19;22.30;99.90
29803;DHT22;16702;50.898;4.662;2022-08-19T08:22:50;22.20;99.90
29803;DHT22;16702;50.898;4.662;2022-08-19T08:25:34;22.30;99.90
29803;DHT22;16702;50.898;4.662;2022-08-19T08:28:05;22.50;99.90
29803;DHT22;16702;50.898;4.662;2022-08-19T08:30:43;22.50;99.90
29803;DHT22;16702;50.898;4.662;2022-08-19T08:33:18;22.60;99.90
29803;DHT22;16702;50.898;4.662;2022-08-19T08:36:04;22.50;99.90
29803;DHT22;16702;50.898;4.662;2022-08-19T08:38:36;22.50;99.90
29803;DHT22;16702;50.898;4.662;2022-08-19T08:41:16;22.50;99.90
29803;DHT22;16702;50.898;4.662;2022-08-19T08:43:50;22.60;99.90
29803;DHT22;16702;50.898;4.662;2022-08-19T08:46:25;22.70;99.90
29803;DHT22;16702;50.898;4.662;2022-08-19T08:49:03;22.70;99.90
29803;DHT22;16702;50.898;4.662;2022-08-19T08:51:43;22.70;99.90
29803;DHT22;16702;50.898;4.662;2022-08-19T08:54:30;22.70;99.90
29803;DHT22;16702;50.898;4.662;2022-08-19T08:57:04;22.60;99.90
29803;DHT22;16702;50.898;4.662;2022-08-19T08:59:39;22.90;99.90
29803;DHT22;16702;50.898;4.662;2022-08-19T09:02:10;23.10;99.90
29803;DHT22;16702;50.898;4.662;2022-08-19T09:04:40;23.10;99.90
29803;DHT22;16702;50.898;4.662;2022-08-19T09:07:25;23.00;99.90
29803;DHT22;16702;50.898;4.662;2022-08-19T09:10:08;22.90;99.90
29803;DHT22;16702;50.898;4.662;2022-08-19T09:12:55;22.80;99.90
29803;DHT22;16702;50.898;4.662;2022-08-19T09:15:39;22.90;99.90
29803;DHT22;16702;50.898;4.662;2022-08-19T09:18:14;23.00;99.90
29803;DHT22;16702;50.898;4.662;2022-08-19T09:20:46;23.10;99.90
29803;DHT22;16702;50.898;4.662;2022-08-19T09:23:20;23.10;99.90
29803;DHT22;16702;50.898;4.662;2022-08-19T09:25:53;23.00;99.90
29803;DHT22;16702;50.898;4.662;2022-08-19T09:28:24;23.10;99.90
29803;DHT22;16702;50.898;4.662;2022-08-19T09:30:58;23.10;99.90
29803;DHT22;16702;50.898;4.662;2022-08-19T09:33:28;23.10;99.90
29803;DHT22;16702;50.898;4.662;2022-08-19T09:36:05;23.20;99.90
29803;DHT22;16702;50.898;4.662;2022-08-19T09:38:39;23.20;99.90
29803;DHT22;16702;50.898;4.662;2022-08-19T09:41:12;23.30;99.90
29803;DHT22;16702;50.898;4.662;2022-08-19T09:43:47;23.20;99.90
29803;DHT22;16702;50.898;4.662;2022-08-19T09:46:20;23.20;99.90
29803;DHT22;16702;50.898;4.662;2022-08-19T09:48:52;23.20;99.90
29803;DHT22;16702;50.898;4.662;2022-08-19T09:51:29;23.30;99.90
29803;DHT22;16702;50.898;4.662;2022-08-19T09:54:04;23.30;99.90
29803;DHT22;16702;50.898;4.662;2022-08-19T09:56:37;23.30;99.90
29803;DHT22;16702;50.898;4.662;2022-08-19T09:59:08;23.40;99.90
29803;DHT22;16702;50.898;4.662;2022-08-19T10:01:39;23.50;99.90
29803;DHT22;16702;50.898;4.662;2022-08-19T10:04:12;23.40;99.90
29803;DHT22;16702;50.898;4.662;2022-08-19T10:06:49;23.50;99.90
29803;DHT22;16702;50.898;4.662;2022-08-19T10:09:25;23.50;99.90
29803;DHT22;16702;50.898;4.662;2022-08-19T10:12:01;23.50;99.90
29803;DHT22;16702;50.898;4.662;2022-08-19T10:14:37;23.60;99.90
29803;DHT22;16702;50.898;4.662;2022-08-19T10:17:08;23.60;99.90
29803;DHT22;16702;50.898;4.662;2022-08-19T10:19:47;23.70;99.90
29803;DHT22;16702;50.898;4.662;2022-08-19T10:22:22;23.80;99.90
29803;DHT22;16702;50.898;4.662;2022-08-19T10:24:55;23.70;99.90
29803;DHT22;16702;50.898;4.662;2022-08-19T10:27:25;23.70;99.90
29803;DHT22;16702;50.898;4.662;2022-08-19T10:29:58;23.60;99.90
29803;DHT22;16702;50.898;4.662;2022-08-19T10:32:28;23.80;99.90
29803;DHT22;16702;50.898;4.662;2022-08-19T10:35:00;24.00;99.90
29803;DHT22;16702;50.898;4.662;2022-08-19T10:37:33;23.90;99.90
29803;DHT22;16702;50.898;4.662;2022-08-19T10:40:20;23.80;99.90
29803;DHT22;16702;50.898;4.662;2022-08-19T10:42:54;24.00;99.90
29803;DHT22;16702;50.898;4.662;2022-08-19T10:45:25;24.10;99.90
29803;DHT22;16702;50.898;4.662;2022-08-19T10:47:58;24.10;99.90
29803;DHT22;16702;50.898;4.662;2022-08-19T10:50:29;24.30;99.90
29803;DHT22;16702;50.898;4.662;2022-08-19T10:53:13;24.30;99.90
29803;DHT22;16702;50.898;4.662;2022-08-19T10:55:46;24.30;99.90
29803;DHT22;16702;50.898;4.662;2022-08-19T10:58:29;24.20;99.90
29803;DHT22;16702;50.898;4.662;2022-08-19T11:00:59;24.20;99.90
29803;DHT22;16702;50.898;4.662;2022-08-19T11:03:30;24.20;99.90
29803;DHT22;16702;50.898;4.662;2022-08-19T11:06:00;24.20;99.90
29803;DHT22;16702;50.898;4.662;2022-08-19T11:08:32;24.20;99.90
29803;DHT22;16702;50.898;4.662;2022-08-19T11:11:08;24.20;99.90
29803;DHT22;16702;50.898;4.662;2022-08-19T11:13:40;24.20;99.90
29803;DHT22;16702;50.898;4.662;2022-08-19T11:16:14;24.30;99.90
29803;DHT22;16702;50.898;4.662;2022-08-19T11:18:47;24.30;99.90
29803;DHT22;16702;50.898;4.662;2022-08-19T11:21:20;24.20;99.90
29803;DHT22;16702;50.898;4.662;2022-08-19T11:23:56;24.30;99.90
29803;DHT22;16702;50.898;4.662;2022-08-19T11:26:30;24.30;99.90
29803;DHT22;16702;50.898;4.662;2022-08-19T11:29:02;24.50;99.90
29803;DHT22;16702;50.898;4.662;2022-08-19T11:31:40;24.40;99.90
29803;DHT22;16702;50.898;4.662;2022-08-19T11:34:13;24.40;99.90
29803;DHT22;16702;50.898;4.662;2022-08-19T11:36:46;24.30;99.90
29803;DHT22;16702;50.898;4.662;2022-08-19T11:39:20;24.30;99.90
29803;DHT22;16702;50.898;4.662;2022-08-19T11:41:53;24.50;99.90
29803;DHT22;16702;50.898;4.662;2022-08-19T11:44:24;24.30;99.90
29803;DHT22;16702;50.898;4.662;2022-08-19T11:46:57;24.30;99.90
29803;DHT22;16702;50.898;4.662;2022-08-19T11:49:35;24.30;99.90
29803;DHT22;16702;50.898;4.662;2022-08-19T11:52:05;24.30;99.90
29803;DHT22;16702;50.898;4.662;2022-08-19T11:54:38;24.30;99.90
29803;DHT22;16702;50.898;4.662;2022-08-19T11:57:11;24.30;99.90
29803;DHT22;16702;50.898;4.662;2022-08-19T11:59:48;24.30;99.90
29803;DHT22;16702;50.898;4.662;2022-08-19T12:02:19;24.30;99.90
29803;DHT22;16702;50.898;4.662;2022-08-19T12:04:50;24.30;99.90
29803;DHT22;16702;50.898;4.662;2022-08-19T12:07:21;24.30;99.90
29803;DHT22;16702;50.898;4.662;2022-08-19T12:09:51;24.30;99.90
29803;DHT22;16702;50.898;4.662;2022-08-19T12:12:25;24.30;99.90
29803;DHT22;16702;50.898;4.662;2022-08-19T12:14:55;24.40;99.90
29803;DHT22;16702;50.898;4.662;2022-08-19T12:17:26;24.50;99.90
29803;DHT22;16702;50.898;4.662;2022-08-19T12:19:58;24.50;99.90
29803;DHT22;16702;50.898;4.662;2022-08-19T12:22:29;24.50;99.90
29803;DHT22;16702;50.898;4.662;2022-08-19T12:24:59;24.50;99.90
29803;DHT22;16702;50.898;4.662;2022-08-19T12:27:33;24.40;99.90
29803;DHT22;16702;50.898;4.662;2022-08-19T12:30:10;24.40;99.90
29803;DHT22;16702;50.898;4.662;2022-08-19T12:32:41;24.50;99.90
29803;DHT22;16702;50.898;4.662;2022-08-19T12:35:12;24.60;99.90
29803;DHT22;16702;50.898;4.662;2022-08-19T12:37:42;24.60;99.90
29803;DHT22;16702;50.898;4.662;2022-08-19T12:40:23;24.70;99.90
29803;DHT22;16702;50.898;4.662;2022-08-19T12:42:56;24.80;99.90
29803;DHT22;16702;50.898;4.662;2022-08-19T12:45:27;25.00;99.90
29803;DHT22;16702;50.898;4.662;2022-08-19T12:47:58;25.00;99.90
29803;DHT22;16702;50.898;4.662;2022-08-19T12:50:48;25.00;99.90
29803;DHT22;16702;50.898;4.662;2022-08-19T12:53:19;25.10;99.90
29803;DHT22;16702;50.898;4.662;2022-08-19T12:55:55;25.30;99.90
29803;DHT22;16702;50.898;4.662;2022-08-19T12:58:29;25.40;99.90
29803;DHT22;16702;50.898;4.662;2022-08-19T13:01:06;25.50;99.90
29803;DHT22;16702;50.898;4.662;2022-08-19T13:03:38;25.50;99.90
29803;DHT22;16702;50.898;4.662;2022-08-19T13:06:11;25.70;99.90
29803;DHT22;16702;50.898;4.662;2022-08-19T13:08:46;25.80;99.90
29803;DHT22;16702;50.898;4.662;2022-08-19T13:11:22;26.10;99.90
29803;DHT22;16702;50.898;4.662;2022-08-19T13:13:56;26.00;99.90
29803;DHT22;16702;50.898;4.662;2022-08-19T13:16:27;25.90;99.90
29803;DHT22;16702;50.898;4.662;2022-08-19T13:18:58;26.10;99.90
29803;DHT22;16702;50.898;4.662;2022-08-19T13:21:30;26.30;99.90
29803;DHT22;16702;50.898;4.662;2022-08-19T13:24:03;26.20;99.90
29803;DHT22;16702;50.898;4.662;2022-08-19T13:26:33;26.20;99.90
29803;DHT22;16702;50.898;4.662;2022-08-19T13:29:06;26.10;99.90
29803;DHT22;16702;50.898;4.662;2022-08-19T13:31:49;26.20;99.90
29803;DHT22;16702;50.898;4.662;2022-08-19T13:34:34;26.10;99.90
29803;DHT22;16702;50.898;4.662;2022-08-19T13:37:05;25.90;99.90
29803;DHT22;16702;50.898;4.662;2022-08-19T13:39:35;25.90;99.90
29803;DHT22;16702;50.898;4.662;2022-08-19T13:42:06;25.80;99.90
29803;DHT22;16702;50.898;4.662;2022-08-19T13:44:40;25.90;99.90
29803;DHT22;16702;50.898;4.662;2022-08-19T13:47:13;26.00;99.90
29803;DHT22;16702;50.898;4.662;2022-08-19T13:49:44;26.10;99.90
29803;DHT22;16702;50.898;4.662;2022-08-19T13:52:15;26.30;99.90
29803;DHT22;16702;50.898;4.662;2022-08-19T13:54:46;26.20;99.90
29803;DHT22;16702;50.898;4.662;2022-08-19T13:57:16;26.30;99.90
29803;DHT22;16702;50.898;4.662;2022-08-19T13:59:49;26.30;99.90
29803;DHT22;16702;50.898;4.662;2022-08-19T14:02:20;26.40;99.90
29803;DHT22;16702;50.898;4.662;2022-08-19T14:04:50;26.50;99.90
29803;DHT22;16702;50.898;4.662;2022-08-19T14:07:20;26.80;99.90
29803;DHT22;16702;50.898;4.662;2022-08-19T14:09:51;26.70;99.90
29803;DHT22;16702;50.898;4.662;2022-08-19T14:12:22;26.80;99.90
29803;DHT22;16702;50.898;4.662;2022-08-19T14:14:57;26.60;99.90
29803;DHT22;16702;50.898;4.662;2022-08-19T14:17:28;26.60;99.90
29803;DHT22;16702;50.898;4.662;2022-08-19T14:19:59;26.60;99.90
29803;DHT22;16702;50.898;4.662;2022-08-19T14:22:39;26.60;99.90
29803;DHT22;16702;50.898;4.662;2022-08-19T14:25:15;26.80;99.90
29803;DHT22;16702;50.898;4.662;2022-08-19T14:27:46;27.00;99.90
29803;DHT22;16702;50.898;4.662;2022-08-19T14:30:23;27.20;99.90
29803;DHT22;16702;50.898;4.662;2022-08-19T14:32:55;26.90;99.90
29803;DHT22;16702;50.898;4.662;2022-08-19T14:35:27;26.90;99.90
29803;DHT22;16702;50.898;4.662;2022-08-19T14:38:02;26.80;99.90
29803;DHT22;16702;50.898;4.662;2022-08-19T14:40:34;26.70;99.90
29803;DHT22;16702;50.898;4.662;2022-08-19T14:43:05;26.70;99.90
29803;DHT22;16702;50.898;4.662;2022-08-19T14:45:39;26.80;99.90
29803;DHT22;16702;50.898;4.662;2022-08-19T14:48:10;26.60;99.90
29803;DHT22;16702;50.898;4.662;2022-08-19T14:50:46;26.50;99.90
29803;DHT22;16702;50.898;4.662;2022-08-19T14:53:16;26.50;99.90
29803;DHT22;16702;50.898;4.662;2022-08-19T14:55:47;26.40;99.90
29803;DHT22;16702;50.898;4.662;2022-08-19T14:58:18;26.30;99.90
29803;DHT22;16702;50.898;4.662;2022-08-19T15:00:59;26.10;99.90
29803;DHT22;16702;50.898;4.662;2022-08-19T15:03:31;26.10;99.90
29803;DHT22;16702;50.898;4.662;2022-08-19T15:06:04;25.80;99.90
29803;DHT22;16702;50.898;4.662;2022-08-19T15:08:40;25.60;99.90
29803;DHT22;16702;50.898;4.662;2022-08-19T15:11:14;25.40;99.90
29803;DHT22;16702;50.898;4.662;2022-08-19T15:13:44;25.50;99.90
29803;DHT22;16702;50.898;4.662;2022-08-19T15:16:18;25.60;99.90
29803;DHT22;16702;50.898;4.662;2022-08-19T15:18:51;25.60;99.90
29803;DHT22;16702;50.898;4.662;2022-08-19T15:21:24;25.60;99.90
29803;DHT22;16702;50.898;4.662;2022-08-19T15:23:57;25.70;99.90
29803;DHT22;16702;50.898;4.662;2022-08-19T15:26:28;25.70;99.90
29803;DHT22;16702;50.898;4.662;2022-08-19T15:29:01;25.60;99.90
29803;DHT22;16702;50.898;4.662;2022-08-19T15:31:34;25.60;99.90
29803;DHT22;16702;50.898;4.662;2022-08-19T15:34:07;25.50;99.90
29803;DHT22;16702;50.898;4.662;2022-08-19T15:36:40;25.50;99.90
29803;DHT22;16702;50.898;4.662;2022-08-19T15:39:15;25.40;99.90
29803;DHT22;16702;50.898;4.662;2022-08-19T15:41:46;25.40;99.90
29803;DHT22;16702;50.898;4.662;2022-08-19T15:44:19;25.30;99.90
29803;DHT22;16702;50.898;4.662;2022-08-19T15:46:52;25.20;99.90
29803;DHT22;16702;50.898;4.662;2022-08-19T15:49:24;25.40;99.90
29803;DHT22;16702;50.898;4.662;2022-08-19T15:51:54;25.50;99.90
29803;DHT22;16702;50.898;4.662;2022-08-19T15:54:28;25.70;99.90
29803;DHT22;16702;50.898;4.662;2022-08-19T15:57:01;26.10;99.90
29803;DHT22;16702;50.898;4.662;2022-08-19T15:59:44;26.10;99.90
29803;DHT22;16702;50.898;4.662;2022-08-19T16:02:33;26.10;99.90
29803;DHT22;16702;50.898;4.662;2022-08-19T16:05:22;26.50;99.90
29803;DHT22;16702;50.898;4.662;2022-08-19T16:08:05;26.80;99.90
29803;DHT22;16702;50.898;4.662;2022-08-19T16:10:37;26.90;99.90
29803;DHT22;16702;50.898;4.662;2022-08-19T16:13:07;26.70;99.90